sensor_id;sensor_type;location;lat;lon;timestamp;P1;durP1;ratioP1;P2;durP2;ratioP2
11970;SDS011;6045;42.682;23.294;2022-08-01T00:01:48;4.25;;;3.30;;
11970;SDS011;6045;42.682;23.294;2022-08-01T00:04:15;3.60;;;3.30;;
11970;SDS011;6045;42.682;23.294;2022-08-01T00:06:42;4.22;;;3.30;;
11970;SDS011;6045;42.682;23.294;2022-08-01T00:09:08;3.22;;;3.00;;
11970;SDS011;6045;42.682;23.294;2022-08-01T00:14:20;3.17;;;2.97;;
11970;SDS011;6045;42.682;23.294;2022-08-01T00:16:49;3.40;;;3.05;;
11970;SDS011;6045;42.682;23.294;2022-08-01T00:19:15;3.25;;;3.00;;
11970;SDS011;6045;42.682;23.294;2022-08-01T00:21:42;3.13;;;2.92;;
11970;SDS011;6045;42.682;23.294;2022-08-01T00:24:09;3.42;;;3.13;;
11970;SDS011;6045;42.682;23.294;2022-08-01T00:26:36;3.20;;;3.00;;
11970;SDS011;6045;42.682;23.294;2022-08-01T00:29:02;3.30;;;3.00;;
11970;SDS011;6045;42.682;23.294;2022-08-01T00:31:29;3.78;;;3.30;;
11970;SDS011;6045;42.682;23.294;2022-08-01T00:33:57;3.00;;;2.80;;
11970;SDS011;6045;42.682;23.294;2022-08-01T00:36:24;3.05;;;2.85;;
11970;SDS011;6045;42.682;23.294;2022-08-01T00:38:51;3.50;;;3.15;;
11970;SDS011;6045;42.682;23.294;2022-08-01T00:41:18;3.70;;;3.28;;
11970;SDS011;6045;42.682;23.294;2022-08-01T00:43:45;3.40;;;3.10;;
11970;SDS011;6045;42.682;23.294;2022-08-01T00:46:11;3.83;;;3.53;;
11970;SDS011;6045;42.682;23.294;2022-08-01T00:48:38;4.28;;;3.05;;
11970;SDS011;6045;42.682;23.294;2022-08-01T00:51:07;3.80;;;3.50;;
11970;SDS011;6045;42.682;23.294;2022-08-01T00:53:34;4.20;;;3.80;;
11970;SDS011;6045;42.682;23.294;2022-08-01T00:56:01;3.95;;;3.65;;
11970;SDS011;6045;42.682;23.294;2022-08-01T00:58:28;3.97;;;3.65;;
11970;SDS011;6045;42.682;23.294;2022-08-01T01:00:57;4.60;;;4.20;;
11970;SDS011;6045;42.682;23.294;2022-08-01T01:03:24;4.28;;;3.97;;
11970;SDS011;6045;42.682;23.294;2022-08-01T01:05:54;4.78;;;4.10;;
11970;SDS011;6045;42.682;23.294;2022-08-01T01:08:32;5.13;;;4.70;;
11970;SDS011;6045;42.682;23.294;2022-08-01T01:11:09;4.40;;;3.72;;
11970;SDS011;6045;42.682;23.294;2022-08-01T01:13:41;4.40;;;4.00;;
11970;SDS011;6045;42.682;23.294;2022-08-01T01:16:13;5.22;;;3.85;;
11970;SDS011;6045;42.682;23.294;2022-08-01T01:18:43;4.15;;;3.85;;
11970;SDS011;6045;42.682;23.294;2022-08-01T01:24:13;5.07;;;4.22;;
11970;SDS011;6045;42.682;23.294;2022-08-01T01:26:56;4.40;;;4.07;;
11970;SDS011;6045;42.682;23.294;2022-08-01T01:29:35;4.10;;;3.80;;
11970;SDS011;6045;42.682;23.294;2022-08-01T01:32:07;4.43;;;4.03;;
11970;SDS011;6045;42.682;23.294;2022-08-01T01:34:40;4.03;;;3.40;;
11970;SDS011;6045;42.682;23.294;2022-08-01T01:37:11;5.03;;;2.90;;
11970;SDS011;6045;42.682;23.294;2022-08-01T01:39:42;3.00;;;2.70;;
11970;SDS011;6045;42.682;23.294;2022-08-01T01:42:10;2.90;;;2.70;;
11970;SDS011;6045;42.682;23.294;2022-08-01T01:44:38;2.83;;;2.63;;
11970;SDS011;6045;42.682;23.294;2022-08-01T01:47:06;3.92;;;2.60;;
11970;SDS011;6045;42.682;23.294;2022-08-01T01:49:33;3.47;;;2.53;;
11970;SDS011;6045;42.682;23.294;2022-08-01T01:52:00;3.17;;;2.10;;
11970;SDS011;6045;42.682;23.294;2022-08-01T01:54:30;2.47;;;2.28;;
11970;SDS011;6045;42.682;23.294;2022-08-01T01:57:00;4.88;;;2.30;;
11970;SDS011;6045;42.682;23.294;2022-08-01T01:59:30;2.60;;;1.95;;
11970;SDS011;6045;42.682;23.294;2022-08-01T02:02:01;3.65;;;2.17;;
11970;SDS011;6045;42.682;23.294;2022-08-01T02:04:30;2.67;;;2.45;;
11970;SDS011;6045;42.682;23.294;2022-08-01T02:06:58;2.58;;;2.38;;
11970;SDS011;6045;42.682;23.294;2022-08-01T02:09:26;2.22;;;2.00;;
11970;SDS011;6045;42.682;23.294;2022-08-01T02:11:55;2.30;;;2.10;;
11970;SDS011;6045;42.682;23.294;2022-08-01T02:14:24;2.15;;;1.95;;
11970;SDS011;6045;42.682;23.294;2022-08-01T02:16:53;1.98;;;1.88;;
11970;SDS011;6045;42.682;23.294;2022-08-01T02:19:24;2.63;;;1.95;;
11970;SDS011;6045;42.682;23.294;2022-08-01T02:21:51;1.95;;;1.85;;
11970;SDS011;6045;42.682;23.294;2022-08-01T02:24:24;3.13;;;2.17;;
11970;SDS011;6045;42.682;23.294;2022-08-01T02:26:57;2.47;;;2.10;;
11970;SDS011;6045;42.682;23.294;2022-08-01T02:29:29;2.83;;;2.20;;
11970;SDS011;6045;42.682;23.294;2022-08-01T02:32:00;2.55;;;2.35;;
11970;SDS011;6045;42.682;23.294;2022-08-01T02:34:30;3.35;;;2.30;;
11970;SDS011;6045;42.682;23.294;2022-08-01T02:36:59;2.55;;;2.10;;
11970;SDS011;6045;42.682;23.294;2022-08-01T02:39:27;2.20;;;2.00;;
11970;SDS011;6045;42.682;23.294;2022-08-01T02:41:59;2.47;;;2.30;;
11970;SDS011;6045;42.682;23.294;2022-08-01T02:44:30;2.33;;;2.10;;
11970;SDS011;6045;42.682;23.294;2022-08-01T02:47:00;2.40;;;2.15;;
11970;SDS011;6045;42.682;23.294;2022-08-01T02:49:32;3.50;;;2.10;;
11970;SDS011;6045;42.682;23.294;2022-08-01T02:52:04;2.22;;;2.05;;
11970;SDS011;6045;42.682;23.294;2022-08-01T02:54:33;2.92;;;2.05;;
11970;SDS011;6045;42.682;23.294;2022-08-01T02:57:01;2.67;;;1.98;;
11970;SDS011;6045;42.682;23.294;2022-08-01T02:59:29;2.42;;;2.20;;
11970;SDS011;6045;42.682;23.294;2022-08-01T03:01:59;2.30;;;2.10;;
11970;SDS011;6045;42.682;23.294;2022-08-01T03:04:27;2.92;;;2.10;;
11970;SDS011;6045;42.682;23.294;2022-08-01T03:06:57;3.40;;;2.20;;
11970;SDS011;6045;42.682;23.294;2022-08-01T03:09:26;3.38;;;2.35;;
11970;SDS011;6045;42.682;23.294;2022-08-01T03:11:55;2.67;;;2.45;;
11970;SDS011;6045;42.682;23.294;2022-08-01T03:14:27;3.05;;;2.72;;
11970;SDS011;6045;42.682;23.294;2022-08-01T03:16:56;4.93;;;2.55;;
11970;SDS011;6045;42.682;23.294;2022-08-01T03:19:26;3.90;;;2.72;;
11970;SDS011;6045;42.682;23.294;2022-08-01T03:21:54;3.78;;;2.78;;
11970;SDS011;6045;42.682;23.294;2022-08-01T03:24:24;4.50;;;3.50;;
11970;SDS011;6045;42.682;23.294;2022-08-01T03:26:53;4.40;;;3.42;;
11970;SDS011;6045;42.682;23.294;2022-08-01T03:29:24;4.07;;;3.28;;
11970;SDS011;6045;42.682;23.294;2022-08-01T03:31:53;3.53;;;3.22;;
11970;SDS011;6045;42.682;23.294;2022-08-01T03:34:20;5.05;;;3.38;;
11970;SDS011;6045;42.682;23.294;2022-08-01T03:36:48;4.25;;;3.45;;
11970;SDS011;6045;42.682;23.294;2022-08-01T03:39:19;4.53;;;3.70;;
11970;SDS011;6045;42.682;23.294;2022-08-01T03:41:50;3.38;;;3.08;;
11970;SDS011;6045;42.682;23.294;2022-08-01T03:44:22;4.97;;;3.30;;
11970;SDS011;6045;42.682;23.294;2022-08-01T03:46:54;3.25;;;3.05;;
11970;SDS011;6045;42.682;23.294;2022-08-01T03:49:25;3.83;;;3.53;;
11970;SDS011;6045;42.682;23.294;2022-08-01T03:51:55;3.92;;;3.45;;
11970;SDS011;6045;42.682;23.294;2022-08-01T03:54:25;3.25;;;2.95;;
11970;SDS011;6045;42.682;23.294;2022-08-01T03:57:00;3.72;;;3.40;;
11970;SDS011;6045;42.682;23.294;2022-08-01T03:59:28;4.07;;;3.10;;
11970;SDS011;6045;42.682;23.294;2022-08-01T04:01:56;3.97;;;3.53;;
11970;SDS011;6045;42.682;23.294;2022-08-01T04:04:24;4.00;;;3.60;;
11970;SDS011;6045;42.682;23.294;2022-08-01T04:06:51;6.63;;;3.92;;
11970;SDS011;6045;42.682;23.294;2022-08-01T04:09:19;4.38;;;3.97;;
11970;SDS011;6045;42.682;23.294;2022-08-01T04:11:47;4.80;;;3.95;;
11970;SDS011;6045;42.682;23.294;2022-08-01T04:14:15;6.32;;;3.95;;
11970;SDS011;6045;42.682;23.294;2022-08-01T04:16:43;5.40;;;4.15;;
11970;SDS011;6045;42.682;23.294;2022-08-01T04:19:13;8.30;;;4.68;;
11970;SDS011;6045;42.682;23.294;2022-08-01T04:21:44;5.15;;;4.20;;
11970;SDS011;6045;42.682;23.294;2022-08-01T04:24:16;5.82;;;4.22;;
11970;SDS011;6045;42.682;23.294;2022-08-01T04:26:49;4.95;;;3.58;;
11970;SDS011;6045;42.682;23.294;2022-08-01T04:29:21;4.90;;;4.32;;
11970;SDS011;6045;42.682;23.294;2022-08-01T04:31:50;5.93;;;4.05;;
11970;SDS011;6045;42.682;23.294;2022-08-01T04:34:21;4.28;;;3.67;;
11970;SDS011;6045;42.682;23.294;2022-08-01T04:36:52;5.15;;;4.13;;
11970;SDS011;6045;42.682;23.294;2022-08-01T04:39:21;4.15;;;3.75;;
11970;SDS011;6045;42.682;23.294;2022-08-01T04:41:52;7.72;;;4.22;;
11970;SDS011;6045;42.682;23.294;2022-08-01T04:44:23;5.25;;;4.28;;
11970;SDS011;6045;42.682;23.294;2022-08-01T04:46:51;5.18;;;4.40;;
11970;SDS011;6045;42.682;23.294;2022-08-01T04:49:21;4.82;;;4.38;;
11970;SDS011;6045;42.682;23.294;2022-08-01T04:51:50;7.90;;;4.28;;
11970;SDS011;6045;42.682;23.294;2022-08-01T04:54:22;5.30;;;3.67;;
11970;SDS011;6045;42.682;23.294;2022-08-01T04:56:50;6.65;;;5.45;;
11970;SDS011;6045;42.682;23.294;2022-08-01T04:59:18;6.47;;;4.80;;
11970;SDS011;6045;42.682;23.294;2022-08-01T05:02:04;5.63;;;4.68;;
11970;SDS011;6045;42.682;23.294;2022-08-01T05:04:30;8.45;;;5.07;;
11970;SDS011;6045;42.682;23.294;2022-08-01T05:06:57;9.23;;;5.75;;
11970;SDS011;6045;42.682;23.294;2022-08-01T05:09:24;6.05;;;5.22;;
11970;SDS011;6045;42.682;23.294;2022-08-01T05:11:51;6.78;;;5.50;;
11970;SDS011;6045;42.682;23.294;2022-08-01T05:14:18;7.45;;;5.35;;
11970;SDS011;6045;42.682;23.294;2022-08-01T05:16:46;8.05;;;5.50;;
11970;SDS011;6045;42.682;23.294;2022-08-01T05:19:14;7.45;;;5.00;;
11970;SDS011;6045;42.682;23.294;2022-08-01T05:21:41;6.75;;;5.82;;
11970;SDS011;6045;42.682;23.294;2022-08-01T05:24:08;8.15;;;5.40;;
11970;SDS011;6045;42.682;23.294;2022-08-01T05:26:35;6.95;;;4.90;;
11970;SDS011;6045;42.682;23.294;2022-08-01T05:29:02;6.88;;;4.97;;
11970;SDS011;6045;42.682;23.294;2022-08-01T05:31:29;7.18;;;4.78;;
11970;SDS011;6045;42.682;23.294;2022-08-01T05:33:59;5.25;;;4.75;;
11970;SDS011;6045;42.682;23.294;2022-08-01T05:36:27;6.60;;;4.93;;
11970;SDS011;6045;42.682;23.294;2022-08-01T05:38:53;6.97;;;4.80;;
11970;SDS011;6045;42.682;23.294;2022-08-01T05:41:20;9.00;;;5.47;;
11970;SDS011;6045;42.682;23.294;2022-08-01T05:43:47;7.85;;;4.90;;
11970;SDS011;6045;42.682;23.294;2022-08-01T05:46:14;6.00;;;5.10;;
11970;SDS011;6045;42.682;23.294;2022-08-01T05:48:44;8.65;;;4.63;;
11970;SDS011;6045;42.682;23.294;2022-08-01T05:51:11;5.35;;;4.35;;
11970;SDS011;6045;42.682;23.294;2022-08-01T05:53:39;5.38;;;3.88;;
11970;SDS011;6045;42.682;23.294;2022-08-01T05:56:06;4.55;;;4.07;;
11970;SDS011;6045;42.682;23.294;2022-08-01T05:58:33;3.67;;;3.00;;
11970;SDS011;6045;42.682;23.294;2022-08-01T06:01:00;5.07;;;3.00;;
11970;SDS011;6045;42.682;23.294;2022-08-01T06:03:26;8.18;;;3.13;;
11970;SDS011;6045;42.682;23.294;2022-08-01T06:05:56;2.78;;;2.47;;
11970;SDS011;6045;42.682;23.294;2022-08-01T06:08:23;2.70;;;2.50;;
11970;SDS011;6045;42.682;23.294;2022-08-01T06:10:51;2.92;;;2.60;;
11970;SDS011;6045;42.682;23.294;2022-08-01T06:13:17;4.38;;;2.95;;
11970;SDS011;6045;42.682;23.294;2022-08-01T06:15:45;3.60;;;2.40;;
11970;SDS011;6045;42.682;23.294;2022-08-01T06:18:12;2.65;;;2.30;;
11970;SDS011;6045;42.682;23.294;2022-08-01T06:20:39;6.55;;;3.00;;
11970;SDS011;6045;42.682;23.294;2022-08-01T06:23:06;3.00;;;2.55;;
11970;SDS011;6045;42.682;23.294;2022-08-01T06:25:33;3.10;;;2.35;;
11970;SDS011;6045;42.682;23.294;2022-08-01T06:28:01;2.25;;;2.00;;
11970;SDS011;6045;42.682;23.294;2022-08-01T06:30:28;4.15;;;2.60;;
11970;SDS011;6045;42.682;23.294;2022-08-01T06:32:55;2.65;;;2.00;;
11970;SDS011;6045;42.682;23.294;2022-08-01T06:35:23;11.23;;;2.40;;
11970;SDS011;6045;42.682;23.294;2022-08-01T06:37:50;2.53;;;2.33;;
11970;SDS011;6045;42.682;23.294;2022-08-01T06:40:17;2.75;;;2.40;;
11970;SDS011;6045;42.682;23.294;2022-08-01T06:42:44;4.03;;;2.25;;
11970;SDS011;6045;42.682;23.294;2022-08-01T06:45:13;2.67;;;2.47;;
11970;SDS011;6045;42.682;23.294;2022-08-01T06:47:41;2.80;;;2.60;;
11970;SDS011;6045;42.682;23.294;2022-08-01T06:50:09;2.97;;;2.30;;
11970;SDS011;6045;42.682;23.294;2022-08-01T06:52:36;3.40;;;2.60;;
11970;SDS011;6045;42.682;23.294;2022-08-01T06:55:04;2.53;;;2.33;;
11970;SDS011;6045;42.682;23.294;2022-08-01T06:57:31;3.03;;;2.40;;
11970;SDS011;6045;42.682;23.294;2022-08-01T07:00:00;5.20;;;2.65;;
11970;SDS011;6045;42.682;23.294;2022-08-01T07:02:31;3.30;;;2.88;;
11970;SDS011;6045;42.682;23.294;2022-08-01T07:04:58;2.80;;;2.58;;
11970;SDS011;6045;42.682;23.294;2022-08-01T07:07:25;3.40;;;2.70;;
11970;SDS011;6045;42.682;23.294;2022-08-01T07:09:52;2.92;;;2.50;;
11970;SDS011;6045;42.682;23.294;2022-08-01T07:12:19;3.40;;;2.45;;
11970;SDS011;6045;42.682;23.294;2022-08-01T07:14:46;3.33;;;2.50;;
11970;SDS011;6045;42.682;23.294;2022-08-01T07:17:13;4.10;;;2.80;;
11970;SDS011;6045;42.682;23.294;2022-08-01T07:19:41;3.33;;;2.70;;
11970;SDS011;6045;42.682;23.294;2022-08-01T07:22:08;3.25;;;2.80;;
11970;SDS011;6045;42.682;23.294;2022-08-01T07:24:34;2.70;;;2.50;;
11970;SDS011;6045;42.682;23.294;2022-08-01T07:27:01;2.78;;;2.53;;
11970;SDS011;6045;42.682;23.294;2022-08-01T07:29:28;2.63;;;2.42;;
11970;SDS011;6045;42.682;23.294;2022-08-01T07:31:55;4.88;;;2.90;;
11970;SDS011;6045;42.682;23.294;2022-08-01T07:34:23;4.90;;;2.75;;
11970;SDS011;6045;42.682;23.294;2022-08-01T07:36:55;3.38;;;2.28;;
11970;SDS011;6045;42.682;23.294;2022-08-01T07:39:22;5.05;;;2.75;;
11970;SDS011;6045;42.682;23.294;2022-08-01T07:41:49;3.92;;;2.83;;
11970;SDS011;6045;42.682;23.294;2022-08-01T07:44:15;5.90;;;3.38;;
11970;SDS011;6045;42.682;23.294;2022-08-01T07:46:42;3.63;;;3.00;;
11970;SDS011;6045;42.682;23.294;2022-08-01T07:49:09;3.22;;;2.67;;
11970;SDS011;6045;42.682;23.294;2022-08-01T07:51:36;2.97;;;2.40;;
11970;SDS011;6045;42.682;23.294;2022-08-01T07:54:05;3.08;;;2.60;;
11970;SDS011;6045;42.682;23.294;2022-08-01T07:56:32;2.80;;;2.40;;
11970;SDS011;6045;42.682;23.294;2022-08-01T07:58:59;3.30;;;2.78;;
11970;SDS011;6045;42.682;23.294;2022-08-01T08:01:26;6.95;;;2.80;;
11970;SDS011;6045;42.682;23.294;2022-08-01T08:03:53;4.07;;;2.92;;
11970;SDS011;6045;42.682;23.294;2022-08-01T08:06:19;3.85;;;2.45;;
11970;SDS011;6045;42.682;23.294;2022-08-01T08:08:46;3.13;;;2.80;;
11970;SDS011;6045;42.682;23.294;2022-08-01T08:11:14;2.80;;;2.60;;
11970;SDS011;6045;42.682;23.294;2022-08-01T08:13:41;6.63;;;2.88;;
11970;SDS011;6045;42.682;23.294;2022-08-01T08:16:08;3.05;;;2.70;;
11970;SDS011;6045;42.682;23.294;2022-08-01T08:18:35;3.03;;;2.70;;
11970;SDS011;6045;42.682;23.294;2022-08-01T08:21:03;2.70;;;2.50;;
11970;SDS011;6045;42.682;23.294;2022-08-01T08:23:30;4.50;;;2.60;;
11970;SDS011;6045;42.682;23.294;2022-08-01T08:26:15;3.17;;;2.88;;
11970;SDS011;6045;42.682;23.294;2022-08-01T08:28:42;3.42;;;2.63;;
11970;SDS011;6045;42.682;23.294;2022-08-01T08:31:09;5.13;;;2.55;;
11970;SDS011;6045;42.682;23.294;2022-08-01T08:33:36;3.03;;;2.83;;
11970;SDS011;6045;42.682;23.294;2022-08-01T08:36:03;3.42;;;3.10;;
11970;SDS011;6045;42.682;23.294;2022-08-01T08:38:30;3.80;;;2.30;;
11970;SDS011;6045;42.682;23.294;2022-08-01T08:41:00;3.17;;;2.95;;
11970;SDS011;6045;42.682;23.294;2022-08-01T08:43:28;2.88;;;2.63;;
11970;SDS011;6045;42.682;23.294;2022-08-01T08:45:55;4.43;;;2.70;;
11970;SDS011;6045;42.682;23.294;2022-08-01T08:48:22;3.47;;;2.33;;
11970;SDS011;6045;42.682;23.294;2022-08-01T08:50:50;2.65;;;2.45;;
11970;SDS011;6045;42.682;23.294;2022-08-01T08:53:17;2.67;;;2.30;;
11970;SDS011;6045;42.682;23.294;2022-08-01T08:55:45;3.35;;;2.30;;
11970;SDS011;6045;42.682;23.294;2022-08-01T08:58:12;2.65;;;2.45;;
11970;SDS011;6045;42.682;23.294;2022-08-01T09:00:43;2.80;;;2.60;;
11970;SDS011;6045;42.682;23.294;2022-08-01T09:03:11;2.88;;;2.50;;
11970;SDS011;6045;42.682;23.294;2022-08-01T09:05:38;3.38;;;2.40;;
11970;SDS011;6045;42.682;23.294;2022-08-01T09:08:06;2.75;;;2.33;;
11970;SDS011;6045;42.682;23.294;2022-08-01T09:10:33;2.50;;;2.30;;
11970;SDS011;6045;42.682;23.294;2022-08-01T09:13:07;4.03;;;2.30;;
11970;SDS011;6045;42.682;23.294;2022-08-01T09:15:39;2.17;;;1.98;;
11970;SDS011;6045;42.682;23.294;2022-08-01T09:18:08;3.38;;;2.10;;
11970;SDS011;6045;42.682;23.294;2022-08-01T09:21:03;2.85;;;2.40;;
11970;SDS011;6045;42.682;23.294;2022-08-01T09:23:37;2.40;;;2.20;;
11970;SDS011;6045;42.682;23.294;2022-08-01T09:26:07;2.30;;;2.10;;
11970;SDS011;6045;42.682;23.294;2022-08-01T09:28:35;3.55;;;2.45;;
11970;SDS011;6045;42.682;23.294;2022-08-01T09:31:06;2.05;;;1.95;;
11970;SDS011;6045;42.682;23.294;2022-08-01T09:36:26;2.80;;;2.45;;
11970;SDS011;6045;42.682;23.294;2022-08-01T09:39:11;2.40;;;2.20;;
11970;SDS011;6045;42.682;23.294;2022-08-01T09:41:39;2.28;;;2.00;;
11970;SDS011;6045;42.682;23.294;2022-08-01T09:44:06;3.08;;;2.40;;
11970;SDS011;6045;42.682;23.294;2022-08-01T09:46:35;2.95;;;2.65;;
11970;SDS011;6045;42.682;23.294;2022-08-01T09:49:14;3.72;;;2.53;;
11970;SDS011;6045;42.682;23.294;2022-08-01T09:51:41;2.55;;;2.35;;
11970;SDS011;6045;42.682;23.294;2022-08-01T09:54:08;3.25;;;2.53;;
11970;SDS011;6045;42.682;23.294;2022-08-01T09:56:38;2.50;;;2.30;;
11970;SDS011;6045;42.682;23.294;2022-08-01T09:59:07;2.67;;;2.47;;
11970;SDS011;6045;42.682;23.294;2022-08-01T10:01:42;2.70;;;2.50;;
11970;SDS011;6045;42.682;23.294;2022-08-01T10:04:12;3.30;;;2.60;;
11970;SDS011;6045;42.682;23.294;2022-08-01T10:06:41;4.05;;;2.78;;
11970;SDS011;6045;42.682;23.294;2022-08-01T10:09:10;3.10;;;2.38;;
11970;SDS011;6045;42.682;23.294;2022-08-01T10:11:39;3.75;;;2.65;;
11970;SDS011;6045;42.682;23.294;2022-08-01T10:14:07;2.80;;;2.60;;
11970;SDS011;6045;42.682;23.294;2022-08-01T10:16:37;3.25;;;2.70;;
11970;SDS011;6045;42.682;23.294;2022-08-01T10:19:06;2.60;;;2.40;;
11970;SDS011;6045;42.682;23.294;2022-08-01T10:21:35;3.65;;;2.42;;
11970;SDS011;6045;42.682;23.294;2022-08-01T10:24:09;3.03;;;2.70;;
11970;SDS011;6045;42.682;23.294;2022-08-01T10:26:40;3.03;;;2.47;;
11970;SDS011;6045;42.682;23.294;2022-08-01T10:29:08;2.85;;;2.65;;
11970;SDS011;6045;42.682;23.294;2022-08-01T10:31:36;4.25;;;2.90;;
11970;SDS011;6045;42.682;23.294;2022-08-01T10:34:03;3.17;;;2.60;;
11970;SDS011;6045;42.682;23.294;2022-08-01T10:36:31;2.95;;;2.75;;
11970;SDS011;6045;42.682;23.294;2022-08-01T10:39:01;2.95;;;2.75;;
11970;SDS011;6045;42.682;23.294;2022-08-01T10:41:31;3.35;;;2.45;;
11970;SDS011;6045;42.682;23.294;2022-08-01T10:44:00;2.53;;;2.33;;
11970;SDS011;6045;42.682;23.294;2022-08-01T10:46:27;2.60;;;2.40;;
11970;SDS011;6045;42.682;23.294;2022-08-01T10:48:59;5.22;;;3.22;;
11970;SDS011;6045;42.682;23.294;2022-08-01T10:51:34;2.97;;;2.50;;
11970;SDS011;6045;42.682;23.294;2022-08-01T10:54:06;3.80;;;2.13;;
11970;SDS011;6045;42.682;23.294;2022-08-01T10:56:40;4.07;;;2.50;;
11970;SDS011;6045;42.682;23.294;2022-08-01T10:59:10;2.13;;;2.03;;
11970;SDS011;6045;42.682;23.294;2022-08-01T11:01:40;2.90;;;2.40;;
11970;SDS011;6045;42.682;23.294;2022-08-01T11:04:08;2.42;;;2.22;;
11970;SDS011;6045;42.682;23.294;2022-08-01T11:06:41;2.50;;;2.25;;
11970;SDS011;6045;42.682;23.294;2022-08-01T11:09:23;2.80;;;2.60;;
11970;SDS011;6045;42.682;23.294;2022-08-01T11:11:59;2.40;;;2.20;;
11970;SDS011;6045;42.682;23.294;2022-08-01T11:14:28;3.58;;;2.22;;
11970;SDS011;6045;42.682;23.294;2022-08-01T11:16:56;2.50;;;2.30;;
11970;SDS011;6045;42.682;23.294;2022-08-01T11:19:22;3.33;;;2.40;;
11970;SDS011;6045;42.682;23.294;2022-08-01T11:21:59;3.03;;;2.50;;
11970;SDS011;6045;42.682;23.294;2022-08-01T11:27:24;3.80;;;2.30;;
11970;SDS011;6045;42.682;23.294;2022-08-01T11:32:51;3.28;;;2.90;;
11970;SDS011;6045;42.682;23.294;2022-08-01T11:35:20;3.88;;;3.47;;
11970;SDS011;6045;42.682;23.294;2022-08-01T11:37:51;2.53;;;2.17;;
11970;SDS011;6045;42.682;23.294;2022-08-01T11:40:23;2.60;;;2.40;;
11970;SDS011;6045;42.682;23.294;2022-08-01T11:45:47;4.40;;;2.60;;
11970;SDS011;6045;42.682;23.294;2022-08-01T11:48:18;2.95;;;2.53;;
11970;SDS011;6045;42.682;23.294;2022-08-01T11:50:46;2.95;;;2.40;;
11970;SDS011;6045;42.682;23.294;2022-08-01T11:53:12;2.90;;;2.70;;
11970;SDS011;6045;42.682;23.294;2022-08-01T11:55:45;3.70;;;2.30;;
11970;SDS011;6045;42.682;23.294;2022-08-01T11:58:13;2.75;;;2.55;;
11970;SDS011;6045;42.682;23.294;2022-08-01T12:00:41;2.60;;;2.40;;
11970;SDS011;6045;42.682;23.294;2022-08-01T12:03:15;2.97;;;2.30;;
11970;SDS011;6045;42.682;23.294;2022-08-01T12:05:43;2.70;;;2.50;;
11970;SDS011;6045;42.682;23.294;2022-08-01T12:08:10;3.97;;;2.90;;
11970;SDS011;6045;42.682;23.294;2022-08-01T12:10:37;2.80;;;2.60;;
11970;SDS011;6045;42.682;23.294;2022-08-01T12:13:06;3.95;;;2.80;;
11970;SDS011;6045;42.682;23.294;2022-08-01T12:15:33;3.58;;;2.63;;
11970;SDS011;6045;42.682;23.294;2022-08-01T12:18:01;3.05;;;2.85;;
11970;SDS011;6045;42.682;23.294;2022-08-01T12:20:30;3.05;;;2.85;;
11970;SDS011;6045;42.682;23.294;2022-08-01T12:22:59;2.90;;;2.70;;
11970;SDS011;6045;42.682;23.294;2022-08-01T12:25:27;3.13;;;2.83;;
11970;SDS011;6045;42.682;23.294;2022-08-01T12:27:54;3.40;;;2.85;;
11970;SDS011;6045;42.682;23.294;2022-08-01T12:30:23;3.65;;;3.35;;
11970;SDS011;6045;42.682;23.294;2022-08-01T12:32:50;3.08;;;2.75;;
11970;SDS011;6045;42.682;23.294;2022-08-01T12:35:19;2.88;;;2.67;;
11970;SDS011;6045;42.682;23.294;2022-08-01T12:37:48;3.10;;;2.80;;
11970;SDS011;6045;42.682;23.294;2022-08-01T12:40:17;3.65;;;3.33;;
11970;SDS011;6045;42.682;23.294;2022-08-01T12:42:47;3.17;;;2.97;;
11970;SDS011;6045;42.682;23.294;2022-08-01T12:45:15;3.15;;;2.85;;
11970;SDS011;6045;42.682;23.294;2022-08-01T12:47:47;3.17;;;2.88;;
11970;SDS011;6045;42.682;23.294;2022-08-01T12:50:16;4.63;;;2.72;;
11970;SDS011;6045;42.682;23.294;2022-08-01T12:52:44;3.97;;;2.47;;
11970;SDS011;6045;42.682;23.294;2022-08-01T12:55:12;3.70;;;3.10;;
11970;SDS011;6045;42.682;23.294;2022-08-01T12:57:43;3.55;;;2.80;;
11970;SDS011;6045;42.682;23.294;2022-08-01T13:00:19;3.15;;;2.80;;
11970;SDS011;6045;42.682;23.294;2022-08-01T13:02:49;2.95;;;2.72;;
11970;SDS011;6045;42.682;23.294;2022-08-01T13:05:25;3.85;;;3.33;;
11970;SDS011;6045;42.682;23.294;2022-08-01T13:07:52;3.35;;;3.05;;
11970;SDS011;6045;42.682;23.294;2022-08-01T13:10:26;3.10;;;2.90;;
11970;SDS011;6045;42.682;23.294;2022-08-01T13:12:56;2.95;;;2.75;;
11970;SDS011;6045;42.682;23.294;2022-08-01T13:15:25;3.00;;;2.80;;
11970;SDS011;6045;42.682;23.294;2022-08-01T13:18:01;4.25;;;3.10;;
11970;SDS011;6045;42.682;23.294;2022-08-01T13:20:48;3.45;;;2.72;;
11970;SDS011;6045;42.682;23.294;2022-08-01T13:23:16;3.58;;;3.17;;
11970;SDS011;6045;42.682;23.294;2022-08-01T13:25:50;3.10;;;2.80;;
11970;SDS011;6045;42.682;23.294;2022-08-01T13:28:20;3.10;;;2.90;;
11970;SDS011;6045;42.682;23.294;2022-08-01T13:30:51;2.92;;;2.72;;
11970;SDS011;6045;42.682;23.294;2022-08-01T13:33:24;2.90;;;2.67;;
11970;SDS011;6045;42.682;23.294;2022-08-01T13:35:51;3.47;;;2.90;;
11970;SDS011;6045;42.682;23.294;2022-08-01T13:38:20;3.35;;;3.00;;
11970;SDS011;6045;42.682;23.294;2022-08-01T13:41:08;2.72;;;2.58;;
11970;SDS011;6045;42.682;23.294;2022-08-01T13:43:34;3.22;;;3.03;;
11970;SDS011;6045;42.682;23.294;2022-08-01T13:46:01;3.17;;;2.97;;
11970;SDS011;6045;42.682;23.294;2022-08-01T13:48:30;3.38;;;2.90;;
11970;SDS011;6045;42.682;23.294;2022-08-01T13:50:58;3.00;;;2.75;;
11970;SDS011;6045;42.682;23.294;2022-08-01T13:53:26;2.95;;;2.75;;
11970;SDS011;6045;42.682;23.294;2022-08-01T13:55:53;5.32;;;2.65;;
11970;SDS011;6045;42.682;23.294;2022-08-01T13:58:20;3.53;;;2.70;;
11970;SDS011;6045;42.682;23.294;2022-08-01T14:00:47;4.22;;;2.97;;
11970;SDS011;6045;42.682;23.294;2022-08-01T14:03:14;2.85;;;2.65;;
11970;SDS011;6045;42.682;23.294;2022-08-01T14:05:45;3.20;;;2.63;;
11970;SDS011;6045;42.682;23.294;2022-08-01T14:08:12;2.90;;;2.70;;
11970;SDS011;6045;42.682;23.294;2022-08-01T14:10:39;3.08;;;2.78;;
11970;SDS011;6045;42.682;23.294;2022-08-01T14:13:06;3.75;;;3.00;;
11970;SDS011;6045;42.682;23.294;2022-08-01T14:15:33;3.08;;;2.60;;
11970;SDS011;6045;42.682;23.294;2022-08-01T14:18:14;2.78;;;2.58;;
11970;SDS011;6045;42.682;23.294;2022-08-01T14:20:41;2.88;;;2.60;;
11970;SDS011;6045;42.682;23.294;2022-08-01T14:23:10;3.45;;;3.03;;
11970;SDS011;6045;42.682;23.294;2022-08-01T14:25:37;3.35;;;3.05;;
11970;SDS011;6045;42.682;23.294;2022-08-01T14:28:07;2.65;;;2.45;;
11970;SDS011;6045;42.682;23.294;2022-08-01T14:30:34;3.22;;;2.90;;
11970;SDS011;6045;42.682;23.294;2022-08-01T14:33:01;4.28;;;2.60;;
11970;SDS011;6045;42.682;23.294;2022-08-01T14:35:27;4.75;;;2.80;;
11970;SDS011;6045;42.682;23.294;2022-08-01T14:37:56;3.00;;;2.70;;
11970;SDS011;6045;42.682;23.294;2022-08-01T14:40:22;3.30;;;2.70;;
11970;SDS011;6045;42.682;23.294;2022-08-01T14:42:49;4.93;;;3.20;;
11970;SDS011;6045;42.682;23.294;2022-08-01T14:45:16;3.00;;;2.75;;
11970;SDS011;6045;42.682;23.294;2022-08-01T14:47:43;2.80;;;2.60;;
11970;SDS011;6045;42.682;23.294;2022-08-01T14:50:12;3.63;;;2.50;;
11970;SDS011;6045;42.682;23.294;2022-08-01T14:52:40;2.50;;;2.30;;
11970;SDS011;6045;42.682;23.294;2022-08-01T14:55:10;2.60;;;2.40;;
11970;SDS011;6045;42.682;23.294;2022-08-01T14:57:38;2.65;;;2.45;;
11970;SDS011;6045;42.682;23.294;2022-08-01T15:00:07;2.80;;;2.60;;
11970;SDS011;6045;42.682;23.294;2022-08-01T15:02:36;2.60;;;2.40;;
11970;SDS011;6045;42.682;23.294;2022-08-01T15:05:03;2.35;;;2.15;;
11970;SDS011;6045;42.682;23.294;2022-08-01T15:07:30;2.97;;;2.35;;
11970;SDS011;6045;42.682;23.294;2022-08-01T15:09:57;2.65;;;2.45;;
11970;SDS011;6045;42.682;23.294;2022-08-01T15:12:25;4.85;;;4.18;;
11970;SDS011;6045;42.682;23.294;2022-08-01T15:14:52;7.57;;;6.88;;
11970;SDS011;6045;42.682;23.294;2022-08-01T15:17:19;2.92;;;2.40;;